createdAt,value
2023-06-19T00:00:40.892Z,1.58
2023-06-19T00:03:10.693Z,3.00
2023-06-19T00:05:39.941Z,1.83
2023-06-19T00:08:09.066Z,2.10
2023-06-19T00:10:38.107Z,1.58
2023-06-19T00:13:07.246Z,1.90
2023-06-19T00:15:37.671Z,1.83
2023-06-19T00:18:08.301Z,1.77
2023-06-19T00:20:37.592Z,1.60
2023-06-19T00:23:07.651Z,1.75
2023-06-19T00:25:36.657Z,2.00
2023-06-19T00:28:15.067Z,2.17
2023-06-19T00:30:46.239Z,2.10
2023-06-19T00:33:17.415Z,1.63
2023-06-19T00:35:47.582Z,1.60
2023-06-19T00:38:16.565Z,1.63
2023-06-19T00:40:45.726Z,1.85
2023-06-19T00:43:15.649Z,2.22
2023-06-19T00:45:46.135Z,1.77
2023-06-19T00:48:15.402Z,1.73
2023-06-19T00:50:45.312Z,1.90
2023-06-19T00:53:15.540Z,1.83
2023-06-19T00:55:45.288Z,2.30
2023-06-19T00:58:14.432Z,1.73
2023-06-19T01:00:49.723Z,1.98
2023-06-19T01:03:28.640Z,1.77
2023-06-19T01:06:01.081Z,3.25
2023-06-19T01:08:45.414Z,2.28
2023-06-19T01:11:26.794Z,2.08
2023-06-19T01:14:01.356Z,1.77
2023-06-19T01:16:32.280Z,1.88
2023-06-19T01:19:03.371Z,1.90
2023-06-19T01:21:32.880Z,1.90
2023-06-19T01:24:03.433Z,1.70
2023-06-19T01:26:32.518Z,1.90
2023-06-19T01:29:01.725Z,1.45
2023-06-19T01:31:34.226Z,1.58
2023-06-19T01:34:05.833Z,1.90
2023-06-19T01:36:35.492Z,2.03
2023-06-19T01:39:07.128Z,2.10
2023-06-19T01:41:37.758Z,2.00
2023-06-19T01:44:11.086Z,1.58
2023-06-19T01:46:40.262Z,2.03
2023-06-19T01:49:10.919Z,1.77
2023-06-19T01:51:40.169Z,1.40
2023-06-19T01:54:11.409Z,1.63
2023-06-19T01:56:40.627Z,2.10
2023-06-19T01:59:10.090Z,1.80
2023-06-19T02:01:39.125Z,1.73
2023-06-19T02:04:08.272Z,1.70
2023-06-19T02:06:40.094Z,2.00
2023-06-19T02:09:10.717Z,1.58
2023-06-19T02:11:41.636Z,1.50
2023-06-19T02:14:12.337Z,1.73
2023-06-19T02:16:44.874Z,1.58
2023-06-19T02:19:14.402Z,1.83
2023-06-19T02:21:43.630Z,1.70
2023-06-19T02:24:14.280Z,1.75
2023-06-19T02:26:45.213Z,1.80
2023-06-19T02:29:14.222Z,1.88
2023-06-19T02:31:43.677Z,1.90
2023-06-19T02:34:12.989Z,1.92
2023-06-19T02:36:42.288Z,1.70
2023-06-19T02:39:14.258Z,1.83
2023-06-19T02:41:47.118Z,1.70
2023-06-19T02:44:16.298Z,1.70
2023-06-19T02:46:46.714Z,1.70
2023-06-19T02:49:15.966Z,1.80
2023-06-19T02:51:45.809Z,1.83
2023-06-19T02:54:16.332Z,1.65
2023-06-19T02:56:47.845Z,1.58
2023-06-19T02:59:20.637Z,1.58
2023-06-19T03:01:49.702Z,1.50
2023-06-19T03:04:19.647Z,1.80
2023-06-19T03:06:48.793Z,1.40
2023-06-19T03:09:19.248Z,1.83
2023-06-19T03:11:48.312Z,1.98
2023-06-19T03:14:17.567Z,1.50
2023-06-19T03:16:46.796Z,2.05
2023-06-19T03:19:15.961Z,1.90
2023-06-19T03:21:45.088Z,1.70
2023-06-19T03:24:15.590Z,1.85
2023-06-19T03:26:46.955Z,2.13
2023-06-19T03:29:16.482Z,1.98
2023-06-19T03:31:55.565Z,1.70
2023-06-19T03:34:29.213Z,2.10
2023-06-19T03:37:00.662Z,1.92
2023-06-19T03:39:30.001Z,2.10
2023-06-19T03:42:08.399Z,2.10
2023-06-19T03:44:38.004Z,2.20
2023-06-19T03:47:08.083Z,2.25
2023-06-19T03:49:37.228Z,2.40
2023-06-19T03:52:07.736Z,1.90
2023-06-19T03:54:37.628Z,1.92
2023-06-19T03:57:09.740Z,1.92
2023-06-19T03:59:39.071Z,1.80
2023-06-19T04:02:08.574Z,1.75
2023-06-19T04:04:39.146Z,1.80
2023-06-19T04:07:08.516Z,1.85
2023-06-19T04:09:37.566Z,2.00
2023-06-19T04:12:08.710Z,1.85
2023-06-19T04:14:37.806Z,1.27
2023-06-19T04:17:07.465Z,1.67
2023-06-19T04:19:36.565Z,2.28
2023-06-19T04:22:08.113Z,1.90
2023-06-19T04:24:37.955Z,1.60
2023-06-19T04:27:09.945Z,2.22
2023-06-19T04:29:39.488Z,2.10
2023-06-19T04:32:13.154Z,1.67
2023-06-19T04:34:47.346Z,1.75
2023-06-19T04:37:20.246Z,1.83
2023-06-19T04:40:08.949Z,2.13
2023-06-19T04:42:58.061Z,1.50
2023-06-19T04:45:27.284Z,1.55
2023-06-19T04:47:56.408Z,1.90
2023-06-19T04:50:42.793Z,1.40
2023-06-19T04:53:29.119Z,1.65
2023-06-19T04:56:00.799Z,1.60
2023-06-19T04:58:33.222Z,1.58
2023-06-19T05:01:02.425Z,1.60
2023-06-19T05:03:31.523Z,1.83
2023-06-19T05:06:00.691Z,2.25
2023-06-19T05:08:29.757Z,2.00
2023-06-19T05:10:58.988Z,1.70
2023-06-19T05:13:47.986Z,1.80
2023-06-19T05:16:17.809Z,1.88
2023-06-19T05:18:46.911Z,1.45
2023-06-19T05:21:15.937Z,1.50
2023-06-19T05:23:45.019Z,1.63
2023-06-19T05:26:15.139Z,1.58
2023-06-19T05:28:44.164Z,1.55
2023-06-19T05:31:14.688Z,1.70
2023-06-19T05:33:43.883Z,2.17
2023-06-19T05:36:13.075Z,1.95
2023-06-19T05:38:42.493Z,1.70
2023-06-19T05:41:12.075Z,1.67
2023-06-19T05:43:41.274Z,1.80
2023-06-19T05:46:10.918Z,1.67
2023-06-19T05:48:41.604Z,1.52
2023-06-19T05:51:10.747Z,1.83
2023-06-19T05:53:40.201Z,1.58
2023-06-19T05:56:09.236Z,1.75
2023-06-19T05:58:38.401Z,1.80
2023-06-19T06:01:26.357Z,1.80
2023-06-19T06:03:57.572Z,1.50
2023-06-19T06:06:27.341Z,1.75
2023-06-19T06:08:57.026Z,1.88
2023-06-19T06:11:44.599Z,1.40
2023-06-19T06:14:13.778Z,1.70
2023-06-19T06:16:42.971Z,1.45
2023-06-19T06:19:13.595Z,1.52
2023-06-19T06:22:01.589Z,1.65
2023-06-19T06:25:06.385Z,1.30
2023-06-19T06:27:35.560Z,1.42
2023-06-19T06:30:24.240Z,1.40
2023-06-19T06:33:12.065Z,1.63
2023-06-19T06:35:42.675Z,1.50
2023-06-19T06:38:12.397Z,1.30
2023-06-19T06:40:42.854Z,1.55
2023-06-19T06:43:12.348Z,1.60
2023-06-19T06:46:56.874Z,1.45
2023-06-19T06:49:25.943Z,1.13
2023-06-19T06:52:32.429Z,1.30
2023-06-19T06:55:01.719Z,1.45
2023-06-19T06:57:32.925Z,1.40
2023-06-19T07:00:01.938Z,1.33
2023-06-19T07:02:35.723Z,1.67
2023-06-19T07:05:05.070Z,1.30
2023-06-19T07:07:35.773Z,1.92
2023-06-19T07:10:05.233Z,1.50
2023-06-19T07:12:35.489Z,1.58
2023-06-19T07:15:04.836Z,1.40
2023-06-19T07:17:52.820Z,1.30
2023-06-19T07:20:22.279Z,1.60
2023-06-19T07:23:11.906Z,1.35
2023-06-19T07:25:41.225Z,1.30
2023-06-19T07:28:10.661Z,1.40
2023-06-19T07:30:39.871Z,1.52
2023-06-19T07:33:09.459Z,1.20
2023-06-19T07:35:38.686Z,1.45
2023-06-19T07:38:07.775Z,1.60
2023-06-19T07:40:38.246Z,1.40
2023-06-19T07:43:07.928Z,1.30
2023-06-19T07:45:37.815Z,1.25
2023-06-19T07:48:07.426Z,1.67
2023-06-19T07:50:36.512Z,1.17
2023-06-19T07:53:05.640Z,1.50
2023-06-19T07:55:36.361Z,1.50
2023-06-19T07:58:06.917Z,1.48
2023-06-19T08:00:36.698Z,1.55
2023-06-19T08:03:06.095Z,1.45
2023-06-19T08:05:35.286Z,1.30
2023-06-19T08:08:04.512Z,1.23
2023-06-19T08:10:34.217Z,1.10
2023-06-19T08:13:05.725Z,1.10
2023-06-19T08:15:36.304Z,1.20
2023-06-19T08:18:05.812Z,1.33
2023-06-19T08:20:35.052Z,1.40
2023-06-19T08:23:05.856Z,1.05
2023-06-19T08:25:36.360Z,1.38
2023-06-19T08:28:06.053Z,1.63
2023-06-19T08:30:36.567Z,1.50
2023-06-19T08:33:05.843Z,1.48
2023-06-19T08:36:12.327Z,1.30
2023-06-19T08:38:41.737Z,1.58
2023-06-19T08:41:29.503Z,1.13
2023-06-19T08:43:59.289Z,1.60
2023-06-19T08:46:30.302Z,1.30
2023-06-19T08:49:35.688Z,1.13
2023-06-19T08:52:06.009Z,1.25
2023-06-19T08:54:35.382Z,1.30
2023-06-19T08:57:05.159Z,1.38
2023-06-19T08:59:53.282Z,1.35
2023-06-19T09:02:42.519Z,1.45
2023-06-19T09:05:30.680Z,1.35
2023-06-19T09:08:19.457Z,1.17
2023-06-19T09:10:59.499Z,1.23
2023-06-19T09:13:29.949Z,1.23
2023-06-19T09:16:17.678Z,1.13
2023-06-19T09:19:07.241Z,1.45
2023-06-19T09:22:13.288Z,1.10
2023-06-19T09:25:02.573Z,1.45
2023-06-19T09:27:52.317Z,1.25
2023-06-19T09:30:21.910Z,1.27
2023-06-19T09:32:51.624Z,1.08
2023-06-19T09:35:22.276Z,1.38
2023-06-19T09:37:54.051Z,1.50
2023-06-19T09:40:23.969Z,1.00
2023-06-19T09:42:58.959Z,1.20
2023-06-19T09:45:50.745Z,1.15
2023-06-19T09:48:22.899Z,0.90
2023-06-19T09:51:20.295Z,1.30
2023-06-19T09:53:52.561Z,1.50
2023-06-19T09:56:40.284Z,1.40
2023-06-19T09:59:10.872Z,1.20
2023-06-19T10:01:41.599Z,1.15
2023-06-19T10:04:29.049Z,1.35
2023-06-19T10:06:59.649Z,1.30
2023-06-19T10:09:35.152Z,1.48
2023-06-19T10:12:32.876Z,1.10
2023-06-19T10:15:11.318Z,1.20
2023-06-19T10:17:44.883Z,1.20
2023-06-19T10:20:46.786Z,1.70
2023-06-19T10:23:37.544Z,1.10
2023-06-19T10:26:34.274Z,1.20
2023-06-19T10:29:05.628Z,1.10
2023-06-19T10:31:34.955Z,1.48
2023-06-19T10:34:22.756Z,1.23
2023-06-19T10:36:52.077Z,1.45
2023-06-19T10:39:40.797Z,1.20
2023-06-19T10:42:28.885Z,1.15
2023-06-19T10:45:04.676Z,1.33
2023-06-19T10:47:35.204Z,1.30
2023-06-19T10:50:24.496Z,1.20
2023-06-19T10:52:56.324Z,1.35
2023-06-19T10:55:28.093Z,1.10
2023-06-19T10:57:57.198Z,1.40
2023-06-19T11:00:44.671Z,1.30
2023-06-19T11:03:32.298Z,1.40
2023-06-19T11:06:01.625Z,1.17
2023-06-19T11:08:53.669Z,1.40
2023-06-19T11:11:24.362Z,1.50
2023-06-19T11:13:53.516Z,1.23
2023-06-19T11:16:40.071Z,1.23
2023-06-19T11:19:10.270Z,1.38
2023-06-19T11:21:40.443Z,1.45
2023-06-19T11:24:32.236Z,1.48
2023-06-19T11:27:20.307Z,1.33
2023-06-19T11:29:49.588Z,1.58
2023-06-19T11:32:24.200Z,1.10
2023-06-19T11:35:35.415Z,1.20
2023-06-19T11:38:05.692Z,1.50
2023-06-19T11:40:42.354Z,1.15
2023-06-19T11:43:13.190Z,1.63
2023-06-19T11:45:50.909Z,1.40
2023-06-19T11:48:25.598Z,1.40
2023-06-19T11:50:56.831Z,1.30
2023-06-19T11:53:46.333Z,1.25
2023-06-19T11:56:35.314Z,1.20
2023-06-19T11:59:06.710Z,1.20
2023-06-19T12:01:37.560Z,1.40
2023-06-19T12:04:07.142Z,1.50
2023-06-19T12:06:55.044Z,1.60
2023-06-19T12:09:24.389Z,1.40
2023-06-19T12:12:13.094Z,1.30
2023-06-19T12:14:43.810Z,1.15
2023-06-19T12:17:13.278Z,1.35
2023-06-19T12:20:01.092Z,1.35
2023-06-19T12:22:33.329Z,1.30
2023-06-19T12:25:20.446Z,1.13
2023-06-19T12:28:09.551Z,1.52
2023-06-19T12:31:17.357Z,1.40
2023-06-19T12:33:48.732Z,1.48
2023-06-19T12:36:36.661Z,1.35
2023-06-19T12:39:24.496Z,1.70
2023-06-19T12:42:13.206Z,1.48
2023-06-19T12:45:00.133Z,1.90
2023-06-19T12:47:30.849Z,1.42
2023-06-19T12:50:00.081Z,1.45
2023-06-19T12:52:29.535Z,1.45
2023-06-19T12:55:01.063Z,1.38
2023-06-19T12:58:24.529Z,1.45
2023-06-19T13:00:53.912Z,1.67
2023-06-19T13:03:25.252Z,1.50
2023-06-19T13:05:55.402Z,1.52
2023-06-19T13:08:41.871Z,1.20
2023-06-19T13:11:11.047Z,1.20
2023-06-19T13:13:40.498Z,1.50
2023-06-19T13:16:44.884Z,1.35
2023-06-19T13:19:17.826Z,1.50
2023-06-19T13:22:06.101Z,1.48
2023-06-19T13:24:36.566Z,1.52
2023-06-19T13:27:24.323Z,1.30
2023-06-19T13:29:53.731Z,1.38
2023-06-19T13:32:23.189Z,1.48
2023-06-19T13:34:53.848Z,1.17
2023-06-19T13:37:22.954Z,1.70
2023-06-19T13:39:52.374Z,1.30
2023-06-19T13:42:21.551Z,1.50
2023-06-19T13:44:51.499Z,1.33
2023-06-19T13:47:39.688Z,1.50
2023-06-19T13:50:13.513Z,1.60
2023-06-19T13:52:42.866Z,1.80
2023-06-19T13:55:11.978Z,1.73
2023-06-19T13:57:41.565Z,1.38
2023-06-19T14:00:12.861Z,1.40
2023-06-19T14:03:21.046Z,1.48
2023-06-19T14:05:51.879Z,1.38
2023-06-19T14:08:21.391Z,1.52
2023-06-19T14:11:10.662Z,1.50
2023-06-19T14:13:40.000Z,1.50
2023-06-19T14:16:09.660Z,1.70
2023-06-19T14:18:57.957Z,1.23
2023-06-19T14:21:47.178Z,1.58
2023-06-19T14:24:17.697Z,1.90
2023-06-19T14:27:05.860Z,1.48
2023-06-19T14:29:35.412Z,1.50
2023-06-19T14:32:04.910Z,1.60
2023-06-19T14:34:34.125Z,1.40
2023-06-19T14:37:23.586Z,2.42
2023-06-19T14:39:53.105Z,1.80
2023-06-19T14:42:40.764Z,1.48
2023-06-19T14:45:28.756Z,1.60
2023-06-19T14:47:58.006Z,1.58
2023-06-19T14:51:02.865Z,1.50
2023-06-19T14:53:33.824Z,1.52
2023-06-19T14:56:03.704Z,1.80
2023-06-19T14:58:50.070Z,2.03
2023-06-19T15:01:21.915Z,1.60
2023-06-19T15:03:51.212Z,1.90
2023-06-19T15:06:20.463Z,1.60
2023-06-19T15:09:10.095Z,1.80
2023-06-19T15:11:39.609Z,1.88
2023-06-19T15:14:08.835Z,1.40
2023-06-19T15:16:56.376Z,1.33
2023-06-19T15:19:25.645Z,1.60
2023-06-19T15:21:55.112Z,1.60
2023-06-19T15:24:25.793Z,1.75
2023-06-19T15:27:13.441Z,2.03
2023-06-19T15:29:42.829Z,1.63
2023-06-19T15:32:29.489Z,1.60
2023-06-19T15:35:35.534Z,2.03
2023-06-19T15:38:04.641Z,1.77
2023-06-19T15:41:12.369Z,2.25
2023-06-19T15:43:41.634Z,2.30
2023-06-19T15:46:47.737Z,1.98
2023-06-19T15:49:18.921Z,1.70
2023-06-19T15:51:52.354Z,1.88
2023-06-19T15:54:40.745Z,1.92
2023-06-19T15:57:13.619Z,1.85
2023-06-19T15:59:42.946Z,1.58
2023-06-19T16:02:30.880Z,1.75
2023-06-19T16:05:17.374Z,2.38
2023-06-19T16:08:05.540Z,1.63
2023-06-19T16:10:53.220Z,1.65
2023-06-19T16:13:23.781Z,1.48
2023-06-19T16:15:52.857Z,1.60
2023-06-19T16:18:22.101Z,1.60
2023-06-19T16:20:51.638Z,1.27
2023-06-19T16:23:20.761Z,1.70
2023-06-19T16:25:49.955Z,1.65
2023-06-19T16:28:19.107Z,1.50
2023-06-19T16:30:49.897Z,1.75
2023-06-19T16:33:19.464Z,1.48
2023-06-19T16:36:08.982Z,1.50
2023-06-19T16:38:58.911Z,1.27
2023-06-19T16:41:28.121Z,1.48
2023-06-19T16:43:57.226Z,1.05
2023-06-19T16:46:27.805Z,1.30
2023-06-19T16:48:58.773Z,1.35
2023-06-19T16:51:28.041Z,1.33
2023-06-19T16:53:57.148Z,1.95
2023-06-19T16:56:26.373Z,1.63
2023-06-19T16:59:13.251Z,1.42
2023-06-19T17:02:01.378Z,1.73
2023-06-19T17:04:48.047Z,1.75
2023-06-19T17:07:17.179Z,1.40
2023-06-19T17:10:04.749Z,1.30
2023-06-19T17:12:53.437Z,1.23
2023-06-19T17:15:22.670Z,1.40
2023-06-19T17:17:53.471Z,1.73
2023-06-19T17:20:22.751Z,1.10
2023-06-19T17:22:52.137Z,1.35
2023-06-19T17:25:21.636Z,1.70
2023-06-19T17:28:09.010Z,1.40
2023-06-19T17:30:39.957Z,1.50
2023-06-19T17:33:11.981Z,1.65
2023-06-19T17:35:41.136Z,1.92
2023-06-19T17:38:10.416Z,1.73
2023-06-19T17:40:58.273Z,1.85
2023-06-19T17:44:04.722Z,1.65
2023-06-19T17:46:43.250Z,1.50
2023-06-19T17:49:31.711Z,2.00
2023-06-19T17:52:20.695Z,1.90
2023-06-19T17:54:52.010Z,1.77
2023-06-19T17:57:22.946Z,2.13
2023-06-19T17:59:53.292Z,2.22
2023-06-19T18:02:23.863Z,2.05
2023-06-19T18:05:13.300Z,2.85
2023-06-19T18:07:42.893Z,2.03
2023-06-19T18:10:30.503Z,1.67
2023-06-19T18:13:35.848Z,1.58
2023-06-19T18:16:11.205Z,1.70
2023-06-19T18:19:01.683Z,2.33
2023-06-19T18:21:50.827Z,1.83
2023-06-19T18:24:56.301Z,2.28
2023-06-19T18:27:25.502Z,2.13
2023-06-19T18:30:15.822Z,2.03
2023-06-19T18:32:44.985Z,2.22
2023-06-19T18:35:50.030Z,2.10
2023-06-19T18:38:20.583Z,2.20
2023-06-19T18:40:50.066Z,1.80
2023-06-19T18:43:19.135Z,2.20
2023-06-19T18:45:48.528Z,2.00
2023-06-19T18:48:18.077Z,2.38
2023-06-19T18:51:42.874Z,1.95
2023-06-19T18:54:31.627Z,2.08
2023-06-19T18:57:19.378Z,2.10
2023-06-19T19:00:07.299Z,1.92
2023-06-19T19:02:54.823Z,2.13
2023-06-19T19:06:00.970Z,2.33
2023-06-19T19:08:30.179Z,2.20
2023-06-19T19:11:00.826Z,2.72
2023-06-19T19:13:30.232Z,2.20
2023-06-19T19:15:59.424Z,2.08
2023-06-19T19:18:28.686Z,2.70
2023-06-19T19:21:54.217Z,2.10
2023-06-19T19:25:00.480Z,1.92
2023-06-19T19:27:34.088Z,2.28
2023-06-19T19:30:23.016Z,2.10
2023-06-19T19:32:52.650Z,1.90
2023-06-19T19:35:22.770Z,2.10
2023-06-19T19:37:51.957Z,2.25
2023-06-19T19:40:21.420Z,1.90
2023-06-19T19:43:10.538Z,2.30
2023-06-19T19:45:39.813Z,2.03
2023-06-19T19:48:09.885Z,2.28
2023-06-19T19:50:58.129Z,2.13
2023-06-19T19:53:27.316Z,2.08
2023-06-19T19:55:56.593Z,1.90
2023-06-19T19:58:29.395Z,2.10
2023-06-19T20:01:17.253Z,2.35
2023-06-19T20:03:47.125Z,2.47
2023-06-19T20:06:36.608Z,2.10
2023-06-19T20:09:23.221Z,2.13
2023-06-19T20:11:52.461Z,2.38
2023-06-19T20:14:41.515Z,2.50
2023-06-19T20:17:11.238Z,2.20
2023-06-19T20:19:40.523Z,2.28
2023-06-19T20:22:09.621Z,2.05
2023-06-19T20:24:39.043Z,2.42
2023-06-19T20:27:09.057Z,2.28
2023-06-19T20:29:38.465Z,2.22
2023-06-19T20:32:45.203Z,2.17
2023-06-19T20:35:14.242Z,2.10
2023-06-19T20:37:43.307Z,2.00
2023-06-19T20:40:12.783Z,2.08
2023-06-19T20:42:42.065Z,2.28
2023-06-19T20:45:12.502Z,2.50
2023-06-19T20:48:20.630Z,2.80
2023-06-19T20:50:51.439Z,3.65
2023-06-19T20:53:20.602Z,2.60
2023-06-19T20:55:49.737Z,2.83
2023-06-19T20:58:18.865Z,2.75
2023-06-19T21:00:48.312Z,2.60
2023-06-19T21:03:20.731Z,3.10
2023-06-19T21:05:50.150Z,3.00
2023-06-19T21:08:19.251Z,3.00
2023-06-19T21:10:48.379Z,2.35
2023-06-19T21:13:22.341Z,2.50
2023-06-19T21:15:52.034Z,2.67
2023-06-19T21:18:22.536Z,2.50
2023-06-19T21:20:56.448Z,2.20
2023-06-19T21:23:25.847Z,2.65
2023-06-19T21:25:55.129Z,2.38
2023-06-19T21:28:24.337Z,2.17
2023-06-19T21:30:53.393Z,3.03
2023-06-19T21:33:25.706Z,2.10
2023-06-19T21:35:54.890Z,2.30
2023-06-19T21:38:25.613Z,2.35
2023-06-19T21:40:54.720Z,2.30
2023-06-19T21:43:23.747Z,2.35
2023-06-19T21:45:53.149Z,2.10
2023-06-19T21:48:25.209Z,2.10
2023-06-19T21:50:54.622Z,1.98
2023-06-19T21:53:24.056Z,2.38
2023-06-19T21:55:53.172Z,2.65
2023-06-19T21:58:23.269Z,2.40
2023-06-19T22:00:52.393Z,2.60
2023-06-19T22:03:21.589Z,2.53
2023-06-19T22:05:52.057Z,2.17
2023-06-19T22:08:33.761Z,2.67
2023-06-19T22:11:07.109Z,2.55
2023-06-19T22:13:36.348Z,2.33
2023-06-19T22:16:05.841Z,2.53
2023-06-19T22:18:35.005Z,2.35
2023-06-19T22:21:05.499Z,2.55
2023-06-19T22:23:34.485Z,2.38
2023-06-19T22:26:03.547Z,2.42
2023-06-19T22:28:32.537Z,2.38
2023-06-19T22:31:01.641Z,2.80
2023-06-19T22:33:30.813Z,2.78
2023-06-19T22:35:59.949Z,2.47
2023-06-19T22:38:30.539Z,2.38
2023-06-19T22:40:59.803Z,2.15
2023-06-19T22:43:28.884Z,2.75
2023-06-19T22:45:57.920Z,2.45
2023-06-19T22:48:27.759Z,2.17
2023-06-19T22:50:59.283Z,2.85
2023-06-19T22:53:29.858Z,2.42
2023-06-19T22:55:59.016Z,2.97
2023-06-19T22:58:28.044Z,2.30
2023-06-19T23:00:57.645Z,2.38
2023-06-19T23:03:28.937Z,2.33
2023-06-19T23:05:58.008Z,2.83
2023-06-19T23:08:27.515Z,2.30
2023-06-19T23:10:57.869Z,2.60
2023-06-19T23:13:26.873Z,2.20
2023-06-19T23:15:57.829Z,2.38
2023-06-19T23:18:27.047Z,2.60
2023-06-19T23:20:56.089Z,2.22
2023-06-19T23:23:25.164Z,2.50
2023-06-19T23:25:54.245Z,2.13
2023-06-19T23:28:25.490Z,2.67
2023-06-19T23:30:54.528Z,2.38
2023-06-19T23:33:24.443Z,2.72
2023-06-19T23:35:53.506Z,2.75
2023-06-19T23:38:22.595Z,2.40
2023-06-19T23:40:51.753Z,2.53
2023-06-19T23:43:21.036Z,2.30
2023-06-19T23:45:52.796Z,2.20
2023-06-19T23:48:21.940Z,2.65
2023-06-19T23:50:51.133Z,2.17
2023-06-19T23:53:20.380Z,2.40
2023-06-19T23:55:49.557Z,2.55
2023-06-19T23:58:19.323Z,2.30
